Pagrindinis puslapis
METAR-TAF:

METAR-TAF

Oro uostai :

Fairbanks, Aliaska, Jungtinės Amerikos Valstijos

platuma: 64-48-14N, ilguma: 147-52-34W, Aukštis: 132 m

Dabartinis oras

Ataskaita buvo paskelbta 35 minutes, ne 13:53 UTC
Ramus vėjas
Temperatūra -19°C
Drėgmė 77%
Slėgis 1000 hPa
Matomumas: 16.1 km
Išsisklaidę debesys ne aukštis 8000 ft

METAR: PAFA 071353Z 00000KT 10SM SCT080 M19/M22 A2954 RMK AO2 SLP021 T11891222

Laikas: 05:28 (14:28 UTC)

Prognozė

Ataskaita buvo paskelbta 3 valandos ir 6 minutes, ne 11:22 UTC
Prognozė galioja nuo 07 metu 12 UTC su 08 metu 18 UTC
Vėjas 2 kt iš Šiaurės/Šiaurės Rytų
Matomumas: 10 km
Išsisklaidę debesys ne aukštis 8000 ft

TAF: PAFA 071122Z 0712/0818 03002KT P6SM SCT080

Orai ataskaitas ir orų prognozės (METAR, TAF).

turimą stotys yra geltonos ir raudonos taškus žemėlapyje.

Perkelti pele per norėdami pamatyti stoties vardą.

Tada spustelėkite, norėdami matyti oro stebėjimo ir prognozės.

Norėdami pakeisti žemėlapį: spustelėkite ant žalios mygtukų su juodo kryžiaus žemyn,; žalią mygtuką su brūkšneliu, jei norite nutolinti; arba žalių rodyklių gretimoms žemėlapius.


METAR-TAF: